Angola, New York
Current Conditions -  °F | °C
As of 4:53 PM on Tuesday 25 Nov 2014 (Local Time) from KDKK Reporting Station
Overcast Overcast  
Wind Chill: -2°   Ceiling: 2500
Heat Index:   Visibility: 10mi
Dew Point: -2°   Wind: 21mph
Humidity: 70%   Direction: 240°WSW
Pressure: 30.06"   Gusts: 31mph
Location:  42.64°N, 79.03°W
Report Text: KDKK 252153Z AUTO 24018G27KT 10SM BKN025 OVC032 03/M02 A3006 RMK AO2 PK WND 23030/2054 SLP184 T00331017
Loading
Personal Weather Stations






























Interactive Weather Map New forecast layout! Learn more

10-Day Weather Forecast

Advertisements
Track Severe Weather on mobile